Terminal Aerodrome Forecast
Issued by NWS Northern Indiana

Home | Current Version | Previous Version | Text Only | Print | Product List | Glossary Off
Versions: 1 2 3 4 5 6 7 8 9 10 11 12 13 14

540
FTUS43 KIWX 121720
TAFFWA
TAF
KFWA 121720Z 1218/1318 26014KT 6SM -SN OVC040
      TEMPO 1218/1221 3SM -SHSN OVC020
     FM122100 29017G27KT 5SM -SHSN OVC030
     FM130400 31010KT P6SM VCSH BKN035=

USA.gov is the U.S. government's official web portal to all federal, state and local government web resources and services.